sensor_id;sensor_type;location;lat;lon;timestamp;temperature;humidity
60309;DHT22;50313;52.894;6.492;2023-01-19T00:01:32;3.00;99.90
60309;DHT22;50313;52.894;6.492;2023-01-19T00:03:57;2.90;99.90
60309;DHT22;50313;52.894;6.492;2023-01-19T00:06:23;3.00;99.90
60309;DHT22;50313;52.894;6.492;2023-01-19T00:08:49;3.00;99.90
60309;DHT22;50313;52.894;6.492;2023-01-19T00:11:15;3.00;99.90
60309;DHT22;50313;52.894;6.492;2023-01-19T00:13:44;3.00;99.90
60309;DHT22;50313;52.894;6.492;2023-01-19T00:16:17;3.00;99.90
60309;DHT22;50313;52.894;6.492;2023-01-19T00:18:44;3.00;99.90
60309;DHT22;50313;52.894;6.492;2023-01-19T00:21:11;3.00;99.90
60309;DHT22;50313;52.894;6.492;2023-01-19T00:23:39;3.00;99.90
60309;DHT22;50313;52.894;6.492;2023-01-19T00:26:05;2.90;99.90
60309;DHT22;50313;52.894;6.492;2023-01-19T00:28:30;3.00;99.90
60309;DHT22;50313;52.894;6.492;2023-01-19T00:30:56;2.90;99.90
60309;DHT22;50313;52.894;6.492;2023-01-19T00:33:22;2.80;99.90
60309;DHT22;50313;52.894;6.492;2023-01-19T00:35:52;2.70;99.90
60309;DHT22;50313;52.894;6.492;2023-01-19T00:38:19;2.70;99.90
60309;DHT22;50313;52.894;6.492;2023-01-19T00:40:46;2.70;99.90
60309;DHT22;50313;52.894;6.492;2023-01-19T00:43:12;2.60;99.90
60309;DHT22;50313;52.894;6.492;2023-01-19T00:45:37;2.60;99.90
60309;DHT22;50313;52.894;6.492;2023-01-19T00:48:03;2.50;99.90
60309;DHT22;50313;52.894;6.492;2023-01-19T00:50:30;2.30;99.90
60309;DHT22;50313;52.894;6.492;2023-01-19T00:52:57;2.30;99.90
60309;DHT22;50313;52.894;6.492;2023-01-19T00:55:26;2.20;99.90
60309;DHT22;50313;52.894;6.492;2023-01-19T00:57:55;2.10;99.90
60309;DHT22;50313;52.894;6.492;2023-01-19T01:00:21;2.10;99.90
60309;DHT22;50313;52.894;6.492;2023-01-19T01:02:49;2.10;99.90
60309;DHT22;50313;52.894;6.492;2023-01-19T01:05:15;2.10;99.90
60309;DHT22;50313;52.894;6.492;2023-01-19T01:07:41;2.00;99.90
60309;DHT22;50313;52.894;6.492;2023-01-19T01:10:26;2.10;99.90
60309;DHT22;50313;52.894;6.492;2023-01-19T01:12:53;2.00;99.90
60309;DHT22;50313;52.894;6.492;2023-01-19T01:15:19;2.00;99.90
60309;DHT22;50313;52.894;6.492;2023-01-19T01:17:45;2.00;99.90
60309;DHT22;50313;52.894;6.492;2023-01-19T01:20:14;2.10;99.90
60309;DHT22;50313;52.894;6.492;2023-01-19T01:22:43;2.10;99.90
60309;DHT22;50313;52.894;6.492;2023-01-19T01:25:14;2.10;99.90
60309;DHT22;50313;52.894;6.492;2023-01-19T01:27:40;2.10;99.90
60309;DHT22;50313;52.894;6.492;2023-01-19T01:30:10;2.20;99.90
60309;DHT22;50313;52.894;6.492;2023-01-19T01:32:36;2.10;99.90
60309;DHT22;50313;52.894;6.492;2023-01-19T01:35:02;2.10;99.90
60309;DHT22;50313;52.894;6.492;2023-01-19T01:37:28;2.10;99.90
60309;DHT22;50313;52.894;6.492;2023-01-19T01:39:54;2.20;99.90
60309;DHT22;50313;52.894;6.492;2023-01-19T01:42:25;2.20;99.90
60309;DHT22;50313;52.894;6.492;2023-01-19T01:44:53;2.10;99.90
60309;DHT22;50313;52.894;6.492;2023-01-19T01:47:30;2.10;99.90
60309;DHT22;50313;52.894;6.492;2023-01-19T01:50:20;2.20;99.90
60309;DHT22;50313;52.894;6.492;2023-01-19T01:52:53;2.20;99.90
60309;DHT22;50313;52.894;6.492;2023-01-19T01:55:21;2.20;99.90
60309;DHT22;50313;52.894;6.492;2023-01-19T01:57:51;2.20;99.90
60309;DHT22;50313;52.894;6.492;2023-01-19T02:00:18;2.30;99.90
60309;DHT22;50313;52.894;6.492;2023-01-19T02:02:44;2.20;99.90
60309;DHT22;50313;52.894;6.492;2023-01-19T02:05:32;2.20;99.90
60309;DHT22;50313;52.894;6.492;2023-01-19T02:08:06;2.30;99.90
60309;DHT22;50313;52.894;6.492;2023-01-19T02:10:51;2.30;99.90
60309;DHT22;50313;52.894;6.492;2023-01-19T02:13:39;2.30;99.90
60309;DHT22;50313;52.894;6.492;2023-01-19T02:16:09;2.30;99.90
60309;DHT22;50313;52.894;6.492;2023-01-19T02:18:36;2.30;99.90
60309;DHT22;50313;52.894;6.492;2023-01-19T02:23:55;2.30;99.90
60309;DHT22;50313;52.894;6.492;2023-01-19T02:26:28;2.30;99.90
60309;DHT22;50313;52.894;6.492;2023-01-19T02:29:00;2.40;99.90
60309;DHT22;50313;52.894;6.492;2023-01-19T02:31:29;2.40;99.90
60309;DHT22;50313;52.894;6.492;2023-01-19T02:33:56;2.40;99.90
60309;DHT22;50313;52.894;6.492;2023-01-19T02:36:25;2.40;99.90
60309;DHT22;50313;52.894;6.492;2023-01-19T02:38:55;2.40;99.90
60309;DHT22;50313;52.894;6.492;2023-01-19T02:41:24;2.50;99.90
60309;DHT22;50313;52.894;6.492;2023-01-19T02:43:51;2.40;99.90
60309;DHT22;50313;52.894;6.492;2023-01-19T02:46:18;2.40;99.90
60309;DHT22;50313;52.894;6.492;2023-01-19T02:48:44;2.50;99.90
60309;DHT22;50313;52.894;6.492;2023-01-19T02:51:22;2.60;99.90
60309;DHT22;50313;52.894;6.492;2023-01-19T02:54:19;2.50;99.90
60309;DHT22;50313;52.894;6.492;2023-01-19T02:59:57;2.50;99.90
60309;DHT22;50313;52.894;6.492;2023-01-19T03:15:48;2.40;99.90
60309;DHT22;50313;52.894;6.492;2023-01-19T03:18:18;2.40;99.90
60309;DHT22;50313;52.894;6.492;2023-01-19T03:20:45;2.40;99.90
60309;DHT22;50313;52.894;6.492;2023-01-19T03:23:14;2.40;99.90
60309;DHT22;50313;52.894;6.492;2023-01-19T03:25:43;2.30;99.90
60309;DHT22;50313;52.894;6.492;2023-01-19T03:28:13;2.30;99.90
60309;DHT22;50313;52.894;6.492;2023-01-19T03:30:56;2.40;99.90
60309;DHT22;50313;52.894;6.492;2023-01-19T03:33:27;2.30;99.90
60309;DHT22;50313;52.894;6.492;2023-01-19T03:36:03;2.30;99.90
60309;DHT22;50313;52.894;6.492;2023-01-19T03:38:34;2.30;99.90
60309;DHT22;50313;52.894;6.492;2023-01-19T03:41:05;2.30;99.90
60309;DHT22;50313;52.894;6.492;2023-01-19T03:43:34;2.30;99.90
60309;DHT22;50313;52.894;6.492;2023-01-19T03:46:02;2.30;99.90
60309;DHT22;50313;52.894;6.492;2023-01-19T03:48:28;2.20;99.90
60309;DHT22;50313;52.894;6.492;2023-01-19T03:50:54;2.20;99.90
60309;DHT22;50313;52.894;6.492;2023-01-19T03:53:20;2.10;99.90
60309;DHT22;50313;52.894;6.492;2023-01-19T03:55:49;2.20;99.90
60309;DHT22;50313;52.894;6.492;2023-01-19T03:58:15;2.20;99.90
60309;DHT22;50313;52.894;6.492;2023-01-19T04:00:41;2.10;99.90
60309;DHT22;50313;52.894;6.492;2023-01-19T04:03:13;2.10;99.90
60309;DHT22;50313;52.894;6.492;2023-01-19T04:05:39;2.10;99.90
60309;DHT22;50313;52.894;6.492;2023-01-19T04:08:05;2.30;99.90
60309;DHT22;50313;52.894;6.492;2023-01-19T04:10:31;2.30;99.90
60309;DHT22;50313;52.894;6.492;2023-01-19T04:12:58;2.30;99.90
60309;DHT22;50313;52.894;6.492;2023-01-19T04:15:24;2.30;99.90
60309;DHT22;50313;52.894;6.492;2023-01-19T04:17:50;2.30;99.90
60309;DHT22;50313;52.894;6.492;2023-01-19T04:20:16;2.30;99.90
60309;DHT22;50313;52.894;6.492;2023-01-19T04:22:42;2.30;99.90
60309;DHT22;50313;52.894;6.492;2023-01-19T04:25:09;2.30;99.90
60309;DHT22;50313;52.894;6.492;2023-01-19T04:27:35;2.40;99.90
60309;DHT22;50313;52.894;6.492;2023-01-19T04:30:02;2.30;99.90
60309;DHT22;50313;52.894;6.492;2023-01-19T04:32:29;2.40;99.90
60309;DHT22;50313;52.894;6.492;2023-01-19T04:34:55;2.40;99.90
60309;DHT22;50313;52.894;6.492;2023-01-19T04:37:21;2.40;99.90
60309;DHT22;50313;52.894;6.492;2023-01-19T04:39:46;2.60;99.90
60309;DHT22;50313;52.894;6.492;2023-01-19T04:42:12;2.70;99.90
60309;DHT22;50313;52.894;6.492;2023-01-19T04:44:38;2.80;99.90
60309;DHT22;50313;52.894;6.492;2023-01-19T04:47:03;2.80;99.90
60309;DHT22;50313;52.894;6.492;2023-01-19T04:49:29;2.90;99.90
60309;DHT22;50313;52.894;6.492;2023-01-19T04:51:55;3.00;99.90
60309;DHT22;50313;52.894;6.492;2023-01-19T04:54:21;2.90;99.90
60309;DHT22;50313;52.894;6.492;2023-01-19T04:56:47;2.90;99.90
60309;DHT22;50313;52.894;6.492;2023-01-19T04:59:13;2.90;99.90
60309;DHT22;50313;52.894;6.492;2023-01-19T05:01:38;2.90;99.90
60309;DHT22;50313;52.894;6.492;2023-01-19T05:04:04;2.90;99.90
60309;DHT22;50313;52.894;6.492;2023-01-19T05:06:32;2.90;99.90
60309;DHT22;50313;52.894;6.492;2023-01-19T05:08:58;2.90;99.90
60309;DHT22;50313;52.894;6.492;2023-01-19T05:11:24;2.90;99.90
60309;DHT22;50313;52.894;6.492;2023-01-19T05:13:50;2.80;99.90
60309;DHT22;50313;52.894;6.492;2023-01-19T05:16:15;2.90;99.90
60309;DHT22;50313;52.894;6.492;2023-01-19T05:18:41;2.90;99.90
60309;DHT22;50313;52.894;6.492;2023-01-19T05:21:07;2.90;99.90
60309;DHT22;50313;52.894;6.492;2023-01-19T05:23:33;2.90;99.90
60309;DHT22;50313;52.894;6.492;2023-01-19T05:26:00;2.80;99.90
60309;DHT22;50313;52.894;6.492;2023-01-19T05:28:27;2.90;99.90
60309;DHT22;50313;52.894;6.492;2023-01-19T05:30:53;2.90;99.90
60309;DHT22;50313;52.894;6.492;2023-01-19T05:33:20;3.20;99.90
60309;DHT22;50313;52.894;6.492;2023-01-19T05:35:48;3.10;99.90
60309;DHT22;50313;52.894;6.492;2023-01-19T05:38:14;3.10;99.90
60309;DHT22;50313;52.894;6.492;2023-01-19T05:40:40;3.10;99.90
60309;DHT22;50313;52.894;6.492;2023-01-19T05:43:06;3.10;99.90
60309;DHT22;50313;52.894;6.492;2023-01-19T05:45:32;3.20;99.90
60309;DHT22;50313;52.894;6.492;2023-01-19T05:47:58;3.30;99.90
60309;DHT22;50313;52.894;6.492;2023-01-19T05:50:24;3.30;99.90
60309;DHT22;50313;52.894;6.492;2023-01-19T05:52:50;3.30;99.90
60309;DHT22;50313;52.894;6.492;2023-01-19T05:55:20;3.30;99.90
60309;DHT22;50313;52.894;6.492;2023-01-19T05:57:45;3.20;99.90
60309;DHT22;50313;52.894;6.492;2023-01-19T06:00:12;3.20;99.90
60309;DHT22;50313;52.894;6.492;2023-01-19T06:02:38;3.10;99.90
60309;DHT22;50313;52.894;6.492;2023-01-19T06:05:04;3.10;99.90
60309;DHT22;50313;52.894;6.492;2023-01-19T06:07:30;3.10;99.90
60309;DHT22;50313;52.894;6.492;2023-01-19T06:09:59;3.10;99.90
60309;DHT22;50313;52.894;6.492;2023-01-19T06:12:24;3.00;99.90
60309;DHT22;50313;52.894;6.492;2023-01-19T06:14:50;2.90;99.90
60309;DHT22;50313;52.894;6.492;2023-01-19T06:17:16;2.90;99.90
60309;DHT22;50313;52.894;6.492;2023-01-19T06:19:41;2.90;99.90
60309;DHT22;50313;52.894;6.492;2023-01-19T06:22:07;2.80;99.90
60309;DHT22;50313;52.894;6.492;2023-01-19T06:24:33;2.70;99.90
60309;DHT22;50313;52.894;6.492;2023-01-19T06:26:59;2.60;99.90
60309;DHT22;50313;52.894;6.492;2023-01-19T06:29:28;2.50;99.90
60309;DHT22;50313;52.894;6.492;2023-01-19T06:31:54;2.50;99.90
60309;DHT22;50313;52.894;6.492;2023-01-19T06:34:20;2.40;99.90
60309;DHT22;50313;52.894;6.492;2023-01-19T06:36:46;2.40;99.90
60309;DHT22;50313;52.894;6.492;2023-01-19T06:39:12;2.50;99.90
60309;DHT22;50313;52.894;6.492;2023-01-19T06:41:38;2.50;99.90
60309;DHT22;50313;52.894;6.492;2023-01-19T06:44:04;2.50;99.90
60309;DHT22;50313;52.894;6.492;2023-01-19T06:46:30;2.50;99.90
60309;DHT22;50313;52.894;6.492;2023-01-19T06:48:56;2.50;99.90
60309;DHT22;50313;52.894;6.492;2023-01-19T06:51:22;2.50;99.90
60309;DHT22;50313;52.894;6.492;2023-01-19T06:53:48;2.60;99.90
60309;DHT22;50313;52.894;6.492;2023-01-19T06:56:14;2.60;99.90
60309;DHT22;50313;52.894;6.492;2023-01-19T06:58:40;2.60;99.90
60309;DHT22;50313;52.894;6.492;2023-01-19T07:01:07;2.60;99.90
60309;DHT22;50313;52.894;6.492;2023-01-19T07:03:34;2.70;99.90
60309;DHT22;50313;52.894;6.492;2023-01-19T07:06:01;2.90;99.90
60309;DHT22;50313;52.894;6.492;2023-01-19T07:08:30;3.10;99.90
60309;DHT22;50313;52.894;6.492;2023-01-19T07:11:01;3.20;99.90
60309;DHT22;50313;52.894;6.492;2023-01-19T07:13:29;3.30;99.90
60309;DHT22;50313;52.894;6.492;2023-01-19T07:15:54;3.20;99.90
60309;DHT22;50313;52.894;6.492;2023-01-19T07:18:20;3.20;99.90
60309;DHT22;50313;52.894;6.492;2023-01-19T07:20:46;3.10;99.90
60309;DHT22;50313;52.894;6.492;2023-01-19T07:23:14;3.00;99.90
60309;DHT22;50313;52.894;6.492;2023-01-19T07:25:43;3.00;99.90
60309;DHT22;50313;52.894;6.492;2023-01-19T07:28:08;3.00;99.90
60309;DHT22;50313;52.894;6.492;2023-01-19T07:30:35;3.00;99.90
60309;DHT22;50313;52.894;6.492;2023-01-19T07:33:01;3.00;99.90
60309;DHT22;50313;52.894;6.492;2023-01-19T07:35:27;2.90;99.90
60309;DHT22;50313;52.894;6.492;2023-01-19T07:37:54;2.90;99.90
60309;DHT22;50313;52.894;6.492;2023-01-19T07:40:20;2.80;99.90
60309;DHT22;50313;52.894;6.492;2023-01-19T07:42:47;2.80;99.90
60309;DHT22;50313;52.894;6.492;2023-01-19T07:45:14;2.90;99.90
60309;DHT22;50313;52.894;6.492;2023-01-19T07:47:42;2.90;99.90
60309;DHT22;50313;52.894;6.492;2023-01-19T07:50:09;2.90;99.90
60309;DHT22;50313;52.894;6.492;2023-01-19T07:52:35;3.00;99.90
60309;DHT22;50313;52.894;6.492;2023-01-19T07:55:01;3.00;99.90
60309;DHT22;50313;52.894;6.492;2023-01-19T07:57:27;3.00;99.90
60309;DHT22;50313;52.894;6.492;2023-01-19T07:59:54;3.00;99.90
60309;DHT22;50313;52.894;6.492;2023-01-19T08:02:19;3.00;99.90
60309;DHT22;50313;52.894;6.492;2023-01-19T08:04:47;3.00;99.90
60309;DHT22;50313;52.894;6.492;2023-01-19T08:07:12;2.90;99.90
60309;DHT22;50313;52.894;6.492;2023-01-19T08:09:38;2.90;99.90
60309;DHT22;50313;52.894;6.492;2023-01-19T08:12:04;2.90;99.90
60309;DHT22;50313;52.894;6.492;2023-01-19T08:14:35;2.90;99.90
60309;DHT22;50313;52.894;6.492;2023-01-19T08:17:01;2.80;99.90
60309;DHT22;50313;52.894;6.492;2023-01-19T08:19:28;2.80;99.90
60309;DHT22;50313;52.894;6.492;2023-01-19T08:21:54;2.80;99.90
60309;DHT22;50313;52.894;6.492;2023-01-19T08:24:22;2.80;99.90
60309;DHT22;50313;52.894;6.492;2023-01-19T08:26:58;2.70;99.90
60309;DHT22;50313;52.894;6.492;2023-01-19T08:29:30;2.70;99.90
60309;DHT22;50313;52.894;6.492;2023-01-19T08:31:56;2.70;99.90
60309;DHT22;50313;52.894;6.492;2023-01-19T08:34:24;2.70;99.90
60309;DHT22;50313;52.894;6.492;2023-01-19T08:36:50;2.70;99.90
60309;DHT22;50313;52.894;6.492;2023-01-19T08:39:16;2.70;99.90
60309;DHT22;50313;52.894;6.492;2023-01-19T08:41:43;2.70;99.90
60309;DHT22;50313;52.894;6.492;2023-01-19T08:44:09;2.80;99.90
60309;DHT22;50313;52.894;6.492;2023-01-19T08:46:35;2.90;99.90
60309;DHT22;50313;52.894;6.492;2023-01-19T08:49:00;2.90;99.90
60309;DHT22;50313;52.894;6.492;2023-01-19T08:51:26;2.90;99.90
60309;DHT22;50313;52.894;6.492;2023-01-19T08:53:52;2.90;99.90
60309;DHT22;50313;52.894;6.492;2023-01-19T08:56:18;2.80;99.90
60309;DHT22;50313;52.894;6.492;2023-01-19T08:58:44;2.80;99.90
60309;DHT22;50313;52.894;6.492;2023-01-19T09:01:12;2.70;99.90
60309;DHT22;50313;52.894;6.492;2023-01-19T09:03:39;2.80;99.90
60309;DHT22;50313;52.894;6.492;2023-01-19T09:06:09;2.80;99.90
60309;DHT22;50313;52.894;6.492;2023-01-19T09:08:35;2.80;99.90
60309;DHT22;50313;52.894;6.492;2023-01-19T09:11:01;2.80;99.90
60309;DHT22;50313;52.894;6.492;2023-01-19T09:13:27;2.80;99.90
60309;DHT22;50313;52.894;6.492;2023-01-19T09:15:53;2.90;99.90
60309;DHT22;50313;52.894;6.492;2023-01-19T09:18:20;2.80;99.90
60309;DHT22;50313;52.894;6.492;2023-01-19T09:20:48;2.80;99.90
60309;DHT22;50313;52.894;6.492;2023-01-19T09:23:16;2.80;99.90
60309;DHT22;50313;52.894;6.492;2023-01-19T09:25:44;2.60;99.90
60309;DHT22;50313;52.894;6.492;2023-01-19T09:28:12;2.70;99.90
60309;DHT22;50313;52.894;6.492;2023-01-19T09:30:40;2.70;99.90
60309;DHT22;50313;52.894;6.492;2023-01-19T09:33:09;2.70;99.90
60309;DHT22;50313;52.894;6.492;2023-01-19T09:35:37;2.70;99.90
60309;DHT22;50313;52.894;6.492;2023-01-19T09:38:03;2.70;99.90
60309;DHT22;50313;52.894;6.492;2023-01-19T09:40:29;2.70;99.90
60309;DHT22;50313;52.894;6.492;2023-01-19T09:43:05;2.80;99.90
60309;DHT22;50313;52.894;6.492;2023-01-19T09:46:00;2.90;99.90
60309;DHT22;50313;52.894;6.492;2023-01-19T09:51:00;3.10;99.90
60309;DHT22;50313;52.894;6.492;2023-01-19T09:56:16;3.30;99.90
60309;DHT22;50313;52.894;6.492;2023-01-19T09:58:42;3.40;99.90
60309;DHT22;50313;52.894;6.492;2023-01-19T10:07:08;3.60;99.90
60309;DHT22;50313;52.894;6.492;2023-01-19T10:09:42;3.70;99.90
60309;DHT22;50313;52.894;6.492;2023-01-19T10:15:25;3.90;99.90
60309;DHT22;50313;52.894;6.492;2023-01-19T10:20:50;4.00;99.90
60309;DHT22;50313;52.894;6.492;2023-01-19T10:25:52;4.10;99.90
60309;DHT22;50313;52.894;6.492;2023-01-19T10:28:22;4.10;99.90
60309;DHT22;50313;52.894;6.492;2023-01-19T10:30:51;4.20;99.90
60309;DHT22;50313;52.894;6.492;2023-01-19T10:33:18;4.30;99.90
60309;DHT22;50313;52.894;6.492;2023-01-19T10:35:44;4.30;99.90
60309;DHT22;50313;52.894;6.492;2023-01-19T10:38:13;4.30;99.90
60309;DHT22;50313;52.894;6.492;2023-01-19T10:41:02;4.40;99.90
60309;DHT22;50313;52.894;6.492;2023-01-19T10:43:41;4.50;99.90
60309;DHT22;50313;52.894;6.492;2023-01-19T10:48:41;4.60;99.90
60309;DHT22;50313;52.894;6.492;2023-01-19T10:51:09;4.60;99.90
60309;DHT22;50313;52.894;6.492;2023-01-19T10:53:35;4.60;99.90
60309;DHT22;50313;52.894;6.492;2023-01-19T10:58:36;4.70;99.90
60309;DHT22;50313;52.894;6.492;2023-01-19T11:01:17;4.70;99.90
60309;DHT22;50313;52.894;6.492;2023-01-19T11:03:43;4.80;99.90
60309;DHT22;50313;52.894;6.492;2023-01-19T11:06:29;4.80;99.90
60309;DHT22;50313;52.894;6.492;2023-01-19T11:09:18;4.80;99.90
60309;DHT22;50313;52.894;6.492;2023-01-19T11:11:47;4.90;99.90
60309;DHT22;50313;52.894;6.492;2023-01-19T11:14:17;4.90;99.90
60309;DHT22;50313;52.894;6.492;2023-01-19T11:17:02;5.00;99.90
60309;DHT22;50313;52.894;6.492;2023-01-19T11:19:31;5.00;99.90
60309;DHT22;50313;52.894;6.492;2023-01-19T11:22:16;5.00;99.90
60309;DHT22;50313;52.894;6.492;2023-01-19T11:24:51;5.10;99.90
60309;DHT22;50313;52.894;6.492;2023-01-19T11:27:21;5.10;99.90
60309;DHT22;50313;52.894;6.492;2023-01-19T11:29:49;5.10;99.90
60309;DHT22;50313;52.894;6.492;2023-01-19T11:32:21;5.20;99.90
60309;DHT22;50313;52.894;6.492;2023-01-19T11:34:48;5.20;99.90
60309;DHT22;50313;52.894;6.492;2023-01-19T11:40:01;5.20;99.90
60309;DHT22;50313;52.894;6.492;2023-01-19T11:42:31;5.20;99.90
60309;DHT22;50313;52.894;6.492;2023-01-19T11:52:48;5.30;99.90
60309;DHT22;50313;52.894;6.492;2023-01-19T11:57:50;5.40;99.90
60309;DHT22;50313;52.894;6.492;2023-01-19T12:02:46;5.40;99.90
60309;DHT22;50313;52.894;6.492;2023-01-19T12:05:18;5.50;99.90
60309;DHT22;50313;52.894;6.492;2023-01-19T12:07:44;5.70;99.90
60309;DHT22;50313;52.894;6.492;2023-01-19T12:10:32;5.90;99.90
60309;DHT22;50313;52.894;6.492;2023-01-19T12:13:00;5.90;99.90
60309;DHT22;50313;52.894;6.492;2023-01-19T12:15:41;5.90;99.90
60309;DHT22;50313;52.894;6.492;2023-01-19T12:18:15;5.90;99.90
60309;DHT22;50313;52.894;6.492;2023-01-19T12:20:46;5.90;99.90
60309;DHT22;50313;52.894;6.492;2023-01-19T12:23:40;5.90;99.90
60309;DHT22;50313;52.894;6.492;2023-01-19T12:29:04;5.90;99.90
60309;DHT22;50313;52.894;6.492;2023-01-19T12:31:31;5.90;99.90
60309;DHT22;50313;52.894;6.492;2023-01-19T12:36:50;5.90;99.90
60309;DHT22;50313;52.894;6.492;2023-01-19T12:39:19;6.00;99.90
60309;DHT22;50313;52.894;6.492;2023-01-19T12:41:45;6.10;99.90
60309;DHT22;50313;52.894;6.492;2023-01-19T12:46:43;6.10;99.90
60309;DHT22;50313;52.894;6.492;2023-01-19T12:51:46;6.00;99.90
60309;DHT22;50313;52.894;6.492;2023-01-19T12:54:30;6.00;99.90
60309;DHT22;50313;52.894;6.492;2023-01-19T12:57:03;6.00;99.90
60309;DHT22;50313;52.894;6.492;2023-01-19T12:59:36;6.10;99.90
60309;DHT22;50313;52.894;6.492;2023-01-19T13:11:14;6.70;99.90
60309;DHT22;50313;52.894;6.492;2023-01-19T13:21:38;5.80;99.90
60309;DHT22;50313;52.894;6.492;2023-01-19T13:26:54;5.40;99.90
60309;DHT22;50313;52.894;6.492;2023-01-19T13:29:33;5.40;99.90
60309;DHT22;50313;52.894;6.492;2023-01-19T13:32:14;5.40;99.90
60309;DHT22;50313;52.894;6.492;2023-01-19T13:34:45;5.40;99.90
60309;DHT22;50313;52.894;6.492;2023-01-19T13:37:21;5.50;99.90
60309;DHT22;50313;52.894;6.492;2023-01-19T13:39:50;5.50;99.90
60309;DHT22;50313;52.894;6.492;2023-01-19T13:42:31;5.60;99.90
60309;DHT22;50313;52.894;6.492;2023-01-19T13:45:01;5.60;99.90
60309;DHT22;50313;52.894;6.492;2023-01-19T13:47:38;5.70;99.90
60309;DHT22;50313;52.894;6.492;2023-01-19T13:50:18;5.50;99.90
60309;DHT22;50313;52.894;6.492;2023-01-19T13:52:44;5.30;99.90
60309;DHT22;50313;52.894;6.492;2023-01-19T13:55:14;5.40;99.90
60309;DHT22;50313;52.894;6.492;2023-01-19T13:57:44;5.50;99.90
60309;DHT22;50313;52.894;6.492;2023-01-19T14:08:12;5.80;99.90
60309;DHT22;50313;52.894;6.492;2023-01-19T14:10:46;5.80;99.90
60309;DHT22;50313;52.894;6.492;2023-01-19T14:15:46;5.60;99.90
60309;DHT22;50313;52.894;6.492;2023-01-19T14:20:58;5.60;99.90
60309;DHT22;50313;52.894;6.492;2023-01-19T14:26:42;5.40;99.90
60309;DHT22;50313;52.894;6.492;2023-01-19T14:37:26;4.80;99.90
60309;DHT22;50313;52.894;6.492;2023-01-19T14:40:02;4.80;99.90
60309;DHT22;50313;52.894;6.492;2023-01-19T14:42:35;4.70;99.90
60309;DHT22;50313;52.894;6.492;2023-01-19T14:45:05;4.60;99.90
60309;DHT22;50313;52.894;6.492;2023-01-19T14:47:40;4.50;99.90
60309;DHT22;50313;52.894;6.492;2023-01-19T14:50:31;4.40;99.90
60309;DHT22;50313;52.894;6.492;2023-01-19T14:53:00;4.40;99.90
60309;DHT22;50313;52.894;6.492;2023-01-19T14:58:01;4.30;99.90
60309;DHT22;50313;52.894;6.492;2023-01-19T15:00:27;4.30;99.90
60309;DHT22;50313;52.894;6.492;2023-01-19T15:02:52;4.20;99.90
60309;DHT22;50313;52.894;6.492;2023-01-19T15:05:18;4.20;99.90
60309;DHT22;50313;52.894;6.492;2023-01-19T15:07:45;4.10;99.90
60309;DHT22;50313;52.894;6.492;2023-01-19T15:10:21;4.00;99.90
60309;DHT22;50313;52.894;6.492;2023-01-19T15:12:49;3.90;99.90
60309;DHT22;50313;52.894;6.492;2023-01-19T15:15:23;3.90;99.90
60309;DHT22;50313;52.894;6.492;2023-01-19T15:17:50;3.80;99.90
60309;DHT22;50313;52.894;6.492;2023-01-19T15:20:29;3.80;99.90
60309;DHT22;50313;52.894;6.492;2023-01-19T15:22:54;3.70;99.90
60309;DHT22;50313;52.894;6.492;2023-01-19T15:25:22;3.60;99.90
60309;DHT22;50313;52.894;6.492;2023-01-19T15:27:51;3.60;99.90
60309;DHT22;50313;52.894;6.492;2023-01-19T15:30:20;3.60;99.90
60309;DHT22;50313;52.894;6.492;2023-01-19T15:32:47;3.50;99.90
60309;DHT22;50313;52.894;6.492;2023-01-19T15:35:18;3.50;99.90
60309;DHT22;50313;52.894;6.492;2023-01-19T15:37:44;3.50;99.90
60309;DHT22;50313;52.894;6.492;2023-01-19T15:40:11;3.40;99.90
60309;DHT22;50313;52.894;6.492;2023-01-19T15:42:38;3.30;99.90
60309;DHT22;50313;52.894;6.492;2023-01-19T15:47:48;3.20;99.90
60309;DHT22;50313;52.894;6.492;2023-01-19T15:50:13;3.10;99.90
60309;DHT22;50313;52.894;6.492;2023-01-19T15:52:39;3.10;99.90
60309;DHT22;50313;52.894;6.492;2023-01-19T15:55:07;3.00;99.90
60309;DHT22;50313;52.894;6.492;2023-01-19T15:57:33;3.00;99.90
60309;DHT22;50313;52.894;6.492;2023-01-19T15:59:59;2.90;99.90
60309;DHT22;50313;52.894;6.492;2023-01-19T16:02:25;2.90;99.90
60309;DHT22;50313;52.894;6.492;2023-01-19T16:04:51;2.90;99.90
60309;DHT22;50313;52.894;6.492;2023-01-19T16:07:16;2.80;99.90
60309;DHT22;50313;52.894;6.492;2023-01-19T16:09:42;2.80;99.90
60309;DHT22;50313;52.894;6.492;2023-01-19T16:12:08;2.80;99.90
60309;DHT22;50313;52.894;6.492;2023-01-19T16:14:34;2.70;99.90
60309;DHT22;50313;52.894;6.492;2023-01-19T16:16:59;2.70;99.90
60309;DHT22;50313;52.894;6.492;2023-01-19T16:19:26;2.60;99.90
60309;DHT22;50313;52.894;6.492;2023-01-19T16:21:51;2.70;99.90
60309;DHT22;50313;52.894;6.492;2023-01-19T16:24:17;2.60;99.90
60309;DHT22;50313;52.894;6.492;2023-01-19T16:26:43;2.60;99.90
60309;DHT22;50313;52.894;6.492;2023-01-19T16:29:09;2.50;99.90
60309;DHT22;50313;52.894;6.492;2023-01-19T16:31:39;2.50;99.90
60309;DHT22;50313;52.894;6.492;2023-01-19T16:34:06;2.40;99.90
60309;DHT22;50313;52.894;6.492;2023-01-19T16:36:34;2.40;99.90
60309;DHT22;50313;52.894;6.492;2023-01-19T16:39:04;2.40;99.90
60309;DHT22;50313;52.894;6.492;2023-01-19T16:41:29;2.40;99.90
60309;DHT22;50313;52.894;6.492;2023-01-19T16:43:57;2.50;99.90
60309;DHT22;50313;52.894;6.492;2023-01-19T16:46:25;2.40;99.90
60309;DHT22;50313;52.894;6.492;2023-01-19T16:48:52;2.50;99.90
60309;DHT22;50313;52.894;6.492;2023-01-19T16:51:18;2.40;99.90
60309;DHT22;50313;52.894;6.492;2023-01-19T16:53:44;2.50;99.90
60309;DHT22;50313;52.894;6.492;2023-01-19T16:56:28;2.40;99.90
60309;DHT22;50313;52.894;6.492;2023-01-19T16:58:56;2.50;99.90
60309;DHT22;50313;52.894;6.492;2023-01-19T17:01:23;2.60;99.90
60309;DHT22;50313;52.894;6.492;2023-01-19T17:03:49;2.50;99.90
60309;DHT22;50313;52.894;6.492;2023-01-19T17:06:17;2.40;99.90
60309;DHT22;50313;52.894;6.492;2023-01-19T17:08:45;2.50;99.90
60309;DHT22;50313;52.894;6.492;2023-01-19T17:11:17;2.50;99.90
60309;DHT22;50313;52.894;6.492;2023-01-19T17:13:47;2.50;99.90
60309;DHT22;50313;52.894;6.492;2023-01-19T17:16:13;2.50;99.90
60309;DHT22;50313;52.894;6.492;2023-01-19T17:18:39;2.60;99.90
60309;DHT22;50313;52.894;6.492;2023-01-19T17:21:07;2.40;99.90
60309;DHT22;50313;52.894;6.492;2023-01-19T17:23:33;2.40;99.90
60309;DHT22;50313;52.894;6.492;2023-01-19T17:26:00;2.30;99.90
60309;DHT22;50313;52.894;6.492;2023-01-19T17:28:26;2.20;99.90
60309;DHT22;50313;52.894;6.492;2023-01-19T17:30:52;2.20;99.90
60309;DHT22;50313;52.894;6.492;2023-01-19T17:33:22;2.10;99.90
60309;DHT22;50313;52.894;6.492;2023-01-19T17:35:49;2.00;99.90
60309;DHT22;50313;52.894;6.492;2023-01-19T17:38:15;1.90;99.90
60309;DHT22;50313;52.894;6.492;2023-01-19T17:40:41;1.80;99.90
60309;DHT22;50313;52.894;6.492;2023-01-19T17:43:07;1.80;99.90
60309;DHT22;50313;52.894;6.492;2023-01-19T17:45:34;1.70;99.90
60309;DHT22;50313;52.894;6.492;2023-01-19T17:48:01;1.60;99.90
60309;DHT22;50313;52.894;6.492;2023-01-19T17:50:27;1.50;99.90
60309;DHT22;50313;52.894;6.492;2023-01-19T17:52:53;1.50;99.90
60309;DHT22;50313;52.894;6.492;2023-01-19T17:55:19;1.40;99.90